sensor_id;sensor_type;location;lat;lon;timestamp;temperature;humidity
11387;DHT22;5748;53.102;8.456;2023-03-01T00:01:22;3.00;40.20
11387;DHT22;5748;53.102;8.456;2023-03-01T00:03:52;2.90;40.20
11387;DHT22;5748;53.102;8.456;2023-03-01T00:06:20;3.10;40.40
11387;DHT22;5748;53.102;8.456;2023-03-01T00:08:48;2.90;40.20
11387;DHT22;5748;53.102;8.456;2023-03-01T00:11:17;2.90;40.20
11387;DHT22;5748;53.102;8.456;2023-03-01T00:13:48;3.30;40.60
11387;DHT22;5748;53.102;8.456;2023-03-01T00:16:22;3.50;40.90
11387;DHT22;5748;53.102;8.456;2023-03-01T00:18:50;2.80;40.50
11387;DHT22;5748;53.102;8.456;2023-03-01T00:21:18;5.70;42.50
11387;DHT22;5748;53.102;8.456;2023-03-01T00:23:46;2.80;40.30
11387;DHT22;5748;53.102;8.456;2023-03-01T00:26:15;2.80;40.20
11387;DHT22;5748;53.102;8.456;2023-03-01T00:28:43;2.80;40.30
11387;DHT22;5748;53.102;8.456;2023-03-01T00:31:13;2.70;40.20
11387;DHT22;5748;53.102;8.456;2023-03-01T00:33:46;2.90;40.50
11387;DHT22;5748;53.102;8.456;2023-03-01T00:36:15;2.70;40.50
11387;DHT22;5748;53.102;8.456;2023-03-01T00:38:44;2.70;40.50
11387;DHT22;5748;53.102;8.456;2023-03-01T00:41:13;2.70;40.60
11387;DHT22;5748;53.102;8.456;2023-03-01T00:43:43;2.60;40.50
11387;DHT22;5748;53.102;8.456;2023-03-01T00:46:13;2.60;40.70
11387;DHT22;5748;53.102;8.456;2023-03-01T00:48:41;2.60;40.60
11387;DHT22;5748;53.102;8.456;2023-03-01T00:51:11;2.60;40.50
11387;DHT22;5748;53.102;8.456;2023-03-01T00:53:45;2.60;40.70
11387;DHT22;5748;53.102;8.456;2023-03-01T00:56:14;2.90;41.10
11387;DHT22;5748;53.102;8.456;2023-03-01T00:58:42;2.50;40.70
11387;DHT22;5748;53.102;8.456;2023-03-01T01:01:11;2.50;40.70
11387;DHT22;5748;53.102;8.456;2023-03-01T01:03:45;2.40;40.70
11387;DHT22;5748;53.102;8.456;2023-03-01T01:06:16;2.50;40.70
11387;DHT22;5748;53.102;8.456;2023-03-01T01:08:45;3.00;41.10
11387;DHT22;5748;53.102;8.456;2023-03-01T01:11:12;2.40;40.50
11387;DHT22;5748;53.102;8.456;2023-03-01T01:13:40;2.40;40.60
11387;DHT22;5748;53.102;8.456;2023-03-01T01:16:08;2.40;40.80
11387;DHT22;5748;53.102;8.456;2023-03-01T01:18:35;3.70;41.80
11387;DHT22;5748;53.102;8.456;2023-03-01T01:21:06;2.30;40.80
11387;DHT22;5748;53.102;8.456;2023-03-01T01:23:37;2.30;41.00
11387;DHT22;5748;53.102;8.456;2023-03-01T01:26:05;2.30;40.90
11387;DHT22;5748;53.102;8.456;2023-03-01T01:28:33;2.30;40.90
11387;DHT22;5748;53.102;8.456;2023-03-01T01:31:04;2.20;40.80
11387;DHT22;5748;53.102;8.456;2023-03-01T01:33:31;2.20;41.50
11387;DHT22;5748;53.102;8.456;2023-03-01T01:35:59;3.10;41.50
11387;DHT22;5748;53.102;8.456;2023-03-01T01:38:26;2.20;40.90
11387;DHT22;5748;53.102;8.456;2023-03-01T01:41:01;2.20;40.80
11387;DHT22;5748;53.102;8.456;2023-03-01T01:43:31;3.00;41.80
11387;DHT22;5748;53.102;8.456;2023-03-01T01:46:02;2.10;41.00
11387;DHT22;5748;53.102;8.456;2023-03-01T01:48:37;2.10;41.00
11387;DHT22;5748;53.102;8.456;2023-03-01T01:51:10;2.10;41.00
11387;DHT22;5748;53.102;8.456;2023-03-01T01:53:41;2.10;41.00
11387;DHT22;5748;53.102;8.456;2023-03-01T01:56:11;2.00;40.90
11387;DHT22;5748;53.102;8.456;2023-03-01T01:58:41;5.10;43.30
11387;DHT22;5748;53.102;8.456;2023-03-01T02:01:09;2.00;41.00
11387;DHT22;5748;53.102;8.456;2023-03-01T02:03:39;2.00;40.90
11387;DHT22;5748;53.102;8.456;2023-03-01T02:06:15;2.00;41.10
11387;DHT22;5748;53.102;8.456;2023-03-01T02:08:47;2.30;41.30
11387;DHT22;5748;53.102;8.456;2023-03-01T02:11:17;1.90;41.00
11387;DHT22;5748;53.102;8.456;2023-03-01T02:13:47;1.90;41.10
11387;DHT22;5748;53.102;8.456;2023-03-01T02:16:16;1.90;41.00
11387;DHT22;5748;53.102;8.456;2023-03-01T02:18:43;1.90;41.10
11387;DHT22;5748;53.102;8.456;2023-03-01T02:21:30;1.90;41.10
11387;DHT22;5748;53.102;8.456;2023-03-01T02:24:13;1.90;41.40
11387;DHT22;5748;53.102;8.456;2023-03-01T02:26:48;1.80;41.30
11387;DHT22;5748;53.102;8.456;2023-03-01T02:29:18;3.40;42.40
11387;DHT22;5748;53.102;8.456;2023-03-01T02:31:45;1.80;41.40
11387;DHT22;5748;53.102;8.456;2023-03-01T02:34:13;3.70;42.60
11387;DHT22;5748;53.102;8.456;2023-03-01T02:36:45;1.80;41.60
11387;DHT22;5748;53.102;8.456;2023-03-01T02:39:17;4.00;43.10
11387;DHT22;5748;53.102;8.456;2023-03-01T02:41:48;1.80;41.50
11387;DHT22;5748;53.102;8.456;2023-03-01T02:44:18;1.70;41.50
11387;DHT22;5748;53.102;8.456;2023-03-01T02:46:48;1.70;41.30
11387;DHT22;5748;53.102;8.456;2023-03-01T02:49:24;1.70;41.30
11387;DHT22;5748;53.102;8.456;2023-03-01T02:52:17;2.90;42.40
11387;DHT22;5748;53.102;8.456;2023-03-01T02:54:58;1.70;41.50
11387;DHT22;5748;53.102;8.456;2023-03-01T02:57:31;1.70;41.40
11387;DHT22;5748;53.102;8.456;2023-03-01T03:00:04;1.60;41.70
11387;DHT22;5748;53.102;8.456;2023-03-01T03:02:34;1.60;41.40
11387;DHT22;5748;53.102;8.456;2023-03-01T03:05:08;1.60;41.40
11387;DHT22;5748;53.102;8.456;2023-03-01T03:07:39;1.60;41.50
11387;DHT22;5748;53.102;8.456;2023-03-01T03:10:11;1.60;41.50
11387;DHT22;5748;53.102;8.456;2023-03-01T03:12:40;1.50;41.40
11387;DHT22;5748;53.102;8.456;2023-03-01T03:15:10;2.10;41.90
11387;DHT22;5748;53.102;8.456;2023-03-01T03:17:39;1.50;41.40
11387;DHT22;5748;53.102;8.456;2023-03-01T03:20:11;1.50;41.40
11387;DHT22;5748;53.102;8.456;2023-03-01T03:22:49;1.50;41.40
11387;DHT22;5748;53.102;8.456;2023-03-01T03:25:20;1.40;41.40
11387;DHT22;5748;53.102;8.456;2023-03-01T03:27:49;1.50;41.50
11387;DHT22;5748;53.102;8.456;2023-03-01T03:30:25;1.50;41.50
11387;DHT22;5748;53.102;8.456;2023-03-01T03:32:54;1.40;41.40
11387;DHT22;5748;53.102;8.456;2023-03-01T03:35:23;1.40;41.40
11387;DHT22;5748;53.102;8.456;2023-03-01T03:37:51;0.70;41.00
11387;DHT22;5748;53.102;8.456;2023-03-01T03:40:29;1.40;41.50
11387;DHT22;5748;53.102;8.456;2023-03-01T03:42:57;1.40;41.50
11387;DHT22;5748;53.102;8.456;2023-03-01T03:45:45;1.30;41.40
11387;DHT22;5748;53.102;8.456;2023-03-01T03:48:13;1.40;42.10
11387;DHT22;5748;53.102;8.456;2023-03-01T03:50:41;1.30;41.40
11387;DHT22;5748;53.102;8.456;2023-03-01T03:53:10;1.30;41.50
11387;DHT22;5748;53.102;8.456;2023-03-01T03:55:40;1.30;41.50
11387;DHT22;5748;53.102;8.456;2023-03-01T03:58:09;1.30;41.70
11387;DHT22;5748;53.102;8.456;2023-03-01T04:00:39;1.30;41.70
11387;DHT22;5748;53.102;8.456;2023-03-01T04:03:08;1.80;42.10
11387;DHT22;5748;53.102;8.456;2023-03-01T04:05:37;1.30;41.80
11387;DHT22;5748;53.102;8.456;2023-03-01T04:08:05;1.20;41.70
11387;DHT22;5748;53.102;8.456;2023-03-01T04:10:34;1.20;41.70
11387;DHT22;5748;53.102;8.456;2023-03-01T04:13:02;1.20;41.70
11387;DHT22;5748;53.102;8.456;2023-03-01T04:15:32;1.20;41.70
11387;DHT22;5748;53.102;8.456;2023-03-01T04:18:00;1.20;41.80
11387;DHT22;5748;53.102;8.456;2023-03-01T04:20:31;1.20;41.70
11387;DHT22;5748;53.102;8.456;2023-03-01T04:23:02;1.70;42.30
11387;DHT22;5748;53.102;8.456;2023-03-01T04:25:37;1.20;41.90
11387;DHT22;5748;53.102;8.456;2023-03-01T04:28:04;1.20;41.90
11387;DHT22;5748;53.102;8.456;2023-03-01T04:30:32;1.10;41.70
11387;DHT22;5748;53.102;8.456;2023-03-01T04:33:02;1.20;41.70
11387;DHT22;5748;53.102;8.456;2023-03-01T04:35:32;1.10;41.80
11387;DHT22;5748;53.102;8.456;2023-03-01T04:38:00;1.10;41.80
11387;DHT22;5748;53.102;8.456;2023-03-01T04:40:27;1.10;41.70
11387;DHT22;5748;53.102;8.456;2023-03-01T04:43:04;1.10;41.70
11387;DHT22;5748;53.102;8.456;2023-03-01T04:45:32;1.10;42.00
11387;DHT22;5748;53.102;8.456;2023-03-01T04:48:01;1.10;41.90
11387;DHT22;5748;53.102;8.456;2023-03-01T04:50:28;1.10;41.90
11387;DHT22;5748;53.102;8.456;2023-03-01T04:52:57;1.10;41.80
11387;DHT22;5748;53.102;8.456;2023-03-01T04:55:25;1.00;41.90
11387;DHT22;5748;53.102;8.456;2023-03-01T04:57:52;1.00;41.90
11387;DHT22;5748;53.102;8.456;2023-03-01T05:00:23;1.00;41.90
11387;DHT22;5748;53.102;8.456;2023-03-01T05:02:52;1.00;41.90
11387;DHT22;5748;53.102;8.456;2023-03-01T05:05:22;1.00;42.00
11387;DHT22;5748;53.102;8.456;2023-03-01T05:07:53;1.00;42.00
11387;DHT22;5748;53.102;8.456;2023-03-01T05:10:23;1.00;41.80
11387;DHT22;5748;53.102;8.456;2023-03-01T05:13:03;1.00;42.00
11387;DHT22;5748;53.102;8.456;2023-03-01T05:15:31;1.00;42.30
11387;DHT22;5748;53.102;8.456;2023-03-01T05:17:59;0.90;42.00
11387;DHT22;5748;53.102;8.456;2023-03-01T05:20:27;1.00;42.00
11387;DHT22;5748;53.102;8.456;2023-03-01T05:22:58;0.90;42.00
11387;DHT22;5748;53.102;8.456;2023-03-01T05:25:33;0.90;42.10
11387;DHT22;5748;53.102;8.456;2023-03-01T05:28:06;0.90;42.20
11387;DHT22;5748;53.102;8.456;2023-03-01T05:30:41;0.90;42.80
11387;DHT22;5748;53.102;8.456;2023-03-01T05:33:10;0.90;42.20
11387;DHT22;5748;53.102;8.456;2023-03-01T05:35:48;0.90;42.10
11387;DHT22;5748;53.102;8.456;2023-03-01T05:38:32;0.90;42.30
11387;DHT22;5748;53.102;8.456;2023-03-01T05:41:05;0.90;42.30
11387;DHT22;5748;53.102;8.456;2023-03-01T05:43:35;0.90;42.30
11387;DHT22;5748;53.102;8.456;2023-03-01T05:46:05;0.90;42.40
11387;DHT22;5748;53.102;8.456;2023-03-01T05:48:32;0.90;42.40
11387;DHT22;5748;53.102;8.456;2023-03-01T05:51:00;0.80;42.30
11387;DHT22;5748;53.102;8.456;2023-03-01T05:53:27;0.80;42.30
11387;DHT22;5748;53.102;8.456;2023-03-01T05:55:54;0.80;42.30
11387;DHT22;5748;53.102;8.456;2023-03-01T05:58:22;0.80;42.30
11387;DHT22;5748;53.102;8.456;2023-03-01T06:00:50;0.80;42.60
11387;DHT22;5748;53.102;8.456;2023-03-01T06:03:17;0.80;42.60
11387;DHT22;5748;53.102;8.456;2023-03-01T06:05:45;3.30;44.50
11387;DHT22;5748;53.102;8.456;2023-03-01T06:08:12;3.20;44.30
11387;DHT22;5748;53.102;8.456;2023-03-01T06:10:40;0.80;42.50
11387;DHT22;5748;53.102;8.456;2023-03-01T06:13:07;0.80;42.40
11387;DHT22;5748;53.102;8.456;2023-03-01T06:15:42;3.90;44.90
11387;DHT22;5748;53.102;8.456;2023-03-01T06:18:09;0.90;42.60
11387;DHT22;5748;53.102;8.456;2023-03-01T06:21:00;0.90;42.40
11387;DHT22;5748;53.102;8.456;2023-03-01T06:23:27;0.90;42.90
11387;DHT22;5748;53.102;8.456;2023-03-01T06:25:55;0.90;42.40
11387;DHT22;5748;53.102;8.456;2023-03-01T06:28:22;0.90;42.40
11387;DHT22;5748;53.102;8.456;2023-03-01T06:30:51;0.90;42.70
11387;DHT22;5748;53.102;8.456;2023-03-01T06:33:18;0.90;42.60
11387;DHT22;5748;53.102;8.456;2023-03-01T06:35:46;0.90;42.60
11387;DHT22;5748;53.102;8.456;2023-03-01T06:38:14;0.90;42.60
11387;DHT22;5748;53.102;8.456;2023-03-01T06:40:42;1.30;42.90
11387;DHT22;5748;53.102;8.456;2023-03-01T06:43:11;1.00;42.70
11387;DHT22;5748;53.102;8.456;2023-03-01T06:45:38;4.20;45.40
11387;DHT22;5748;53.102;8.456;2023-03-01T06:48:07;0.90;42.80
11387;DHT22;5748;53.102;8.456;2023-03-01T06:50:35;1.00;42.90
11387;DHT22;5748;53.102;8.456;2023-03-01T06:53:03;1.10;43.10
11387;DHT22;5748;53.102;8.456;2023-03-01T06:55:31;1.10;43.10
11387;DHT22;5748;53.102;8.456;2023-03-01T06:58:00;1.10;43.10
11387;DHT22;5748;53.102;8.456;2023-03-01T07:00:28;1.20;43.20
11387;DHT22;5748;53.102;8.456;2023-03-01T07:02:58;1.20;43.20
11387;DHT22;5748;53.102;8.456;2023-03-01T07:05:28;1.20;43.20
11387;DHT22;5748;53.102;8.456;2023-03-01T07:07:56;3.70;45.10
11387;DHT22;5748;53.102;8.456;2023-03-01T07:10:33;1.40;43.30
11387;DHT22;5748;53.102;8.456;2023-03-01T07:13:00;1.40;43.30
11387;DHT22;5748;53.102;8.456;2023-03-01T07:15:27;1.50;43.60
11387;DHT22;5748;53.102;8.456;2023-03-01T07:17:56;1.50;43.60
11387;DHT22;5748;53.102;8.456;2023-03-01T07:20:24;2.20;44.20
11387;DHT22;5748;53.102;8.456;2023-03-01T07:22:54;1.60;43.90
11387;DHT22;5748;53.102;8.456;2023-03-01T07:25:21;1.70;44.10
11387;DHT22;5748;53.102;8.456;2023-03-01T07:27:49;1.80;44.10
11387;DHT22;5748;53.102;8.456;2023-03-01T07:30:24;1.80;44.40
11387;DHT22;5748;53.102;8.456;2023-03-01T07:32:54;1.90;44.60
11387;DHT22;5748;53.102;8.456;2023-03-01T07:35:22;2.00;44.60
11387;DHT22;5748;53.102;8.456;2023-03-01T07:37:49;2.10;44.80
11387;DHT22;5748;53.102;8.456;2023-03-01T07:40:19;1.70;44.50
11387;DHT22;5748;53.102;8.456;2023-03-01T07:42:46;2.40;45.80
11387;DHT22;5748;53.102;8.456;2023-03-01T07:45:13;3.20;46.20
11387;DHT22;5748;53.102;8.456;2023-03-01T07:47:40;4.40;46.90
11387;DHT22;5748;53.102;8.456;2023-03-01T07:50:08;2.60;45.60
11387;DHT22;5748;53.102;8.456;2023-03-01T07:52:36;2.80;46.10
11387;DHT22;5748;53.102;8.456;2023-03-01T07:55:04;4.40;47.40
11387;DHT22;5748;53.102;8.456;2023-03-01T07:57:33;3.00;46.10
11387;DHT22;5748;53.102;8.456;2023-03-01T08:00:00;3.20;46.60
11387;DHT22;5748;53.102;8.456;2023-03-01T08:02:27;3.50;46.80
11387;DHT22;5748;53.102;8.456;2023-03-01T08:04:54;3.40;46.50
11387;DHT22;5748;53.102;8.456;2023-03-01T08:07:21;3.60;46.60
11387;DHT22;5748;53.102;8.456;2023-03-01T08:09:49;5.80;48.10
11387;DHT22;5748;53.102;8.456;2023-03-01T08:12:16;4.00;46.70
11387;DHT22;5748;53.102;8.456;2023-03-01T08:14:44;5.20;47.90
11387;DHT22;5748;53.102;8.456;2023-03-01T08:17:13;4.20;47.70
11387;DHT22;5748;53.102;8.456;2023-03-01T08:19:40;4.90;47.40
11387;DHT22;5748;53.102;8.456;2023-03-01T08:22:09;4.50;46.80
11387;DHT22;5748;53.102;8.456;2023-03-01T08:24:36;7.30;48.70
11387;DHT22;5748;53.102;8.456;2023-03-01T08:27:03;4.80;46.70
11387;DHT22;5748;53.102;8.456;2023-03-01T08:29:31;5.00;46.70
11387;DHT22;5748;53.102;8.456;2023-03-01T08:31:59;5.20;46.80
11387;DHT22;5748;53.102;8.456;2023-03-01T08:34:27;5.30;46.80
11387;DHT22;5748;53.102;8.456;2023-03-01T08:36:54;5.50;46.70
11387;DHT22;5748;53.102;8.456;2023-03-01T08:39:20;5.70;46.90
11387;DHT22;5748;53.102;8.456;2023-03-01T08:41:48;5.90;47.00
11387;DHT22;5748;53.102;8.456;2023-03-01T08:44:15;7.80;48.60
11387;DHT22;5748;53.102;8.456;2023-03-01T08:46:43;6.30;47.60
11387;DHT22;5748;53.102;8.456;2023-03-01T08:49:14;7.60;48.70
11387;DHT22;5748;53.102;8.456;2023-03-01T08:51:43;6.80;47.90
11387;DHT22;5748;53.102;8.456;2023-03-01T08:54:12;7.10;47.80
11387;DHT22;5748;53.102;8.456;2023-03-01T08:56:41;7.40;48.00
11387;DHT22;5748;53.102;8.456;2023-03-01T08:59:09;7.70;48.10
11387;DHT22;5748;53.102;8.456;2023-03-01T09:01:36;7.90;48.00
11387;DHT22;5748;53.102;8.456;2023-03-01T09:04:03;8.30;48.20
11387;DHT22;5748;53.102;8.456;2023-03-01T09:06:32;8.60;48.70
11387;DHT22;5748;53.102;8.456;2023-03-01T09:09:00;9.00;49.10
11387;DHT22;5748;53.102;8.456;2023-03-01T09:11:29;9.50;49.20
11387;DHT22;5748;53.102;8.456;2023-03-01T09:13:56;9.90;49.00
11387;DHT22;5748;53.102;8.456;2023-03-01T09:16:23;10.40;48.10
11387;DHT22;5748;53.102;8.456;2023-03-01T09:18:52;11.40;48.90
11387;DHT22;5748;53.102;8.456;2023-03-01T09:21:21;11.40;48.70
11387;DHT22;5748;53.102;8.456;2023-03-01T09:23:50;12.30;49.20
11387;DHT22;5748;53.102;8.456;2023-03-01T09:26:19;12.40;49.90
11387;DHT22;5748;53.102;8.456;2023-03-01T09:28:49;13.00;49.60
11387;DHT22;5748;53.102;8.456;2023-03-01T09:31:18;13.60;49.30
11387;DHT22;5748;53.102;8.456;2023-03-01T09:33:47;14.20;48.30
11387;DHT22;5748;53.102;8.456;2023-03-01T09:36:17;14.60;47.10
11387;DHT22;5748;53.102;8.456;2023-03-01T09:38:46;14.90;46.10
11387;DHT22;5748;53.102;8.456;2023-03-01T09:41:26;15.00;45.20
11387;DHT22;5748;53.102;8.456;2023-03-01T09:44:12;15.10;44.00
11387;DHT22;5748;53.102;8.456;2023-03-01T09:46:45;15.30;44.00
11387;DHT22;5748;53.102;8.456;2023-03-01T09:49:16;15.40;44.20
11387;DHT22;5748;53.102;8.456;2023-03-01T09:51:54;15.50;43.80
11387;DHT22;5748;53.102;8.456;2023-03-01T09:54:23;15.50;43.30
11387;DHT22;5748;53.102;8.456;2023-03-01T09:57:04;16.70;44.80
11387;DHT22;5748;53.102;8.456;2023-03-01T09:59:45;15.80;43.50
11387;DHT22;5748;53.102;8.456;2023-03-01T10:02:27;16.00;43.60
11387;DHT22;5748;53.102;8.456;2023-03-01T10:05:09;16.20;43.50
11387;DHT22;5748;53.102;8.456;2023-03-01T10:07:46;16.30;42.80
11387;DHT22;5748;53.102;8.456;2023-03-01T10:10:23;16.40;43.20
11387;DHT22;5748;53.102;8.456;2023-03-01T10:12:56;16.70;43.70
11387;DHT22;5748;53.102;8.456;2023-03-01T10:15:30;17.00;44.20
11387;DHT22;5748;53.102;8.456;2023-03-01T10:18:04;17.20;44.00
11387;DHT22;5748;53.102;8.456;2023-03-01T10:20:44;17.50;44.20
11387;DHT22;5748;53.102;8.456;2023-03-01T10:23:13;18.10;43.90
11387;DHT22;5748;53.102;8.456;2023-03-01T10:25:47;18.20;44.20
11387;DHT22;5748;53.102;8.456;2023-03-01T10:28:27;18.80;44.10
11387;DHT22;5748;53.102;8.456;2023-03-01T10:30:58;19.00;43.90
11387;DHT22;5748;53.102;8.456;2023-03-01T10:33:28;19.20;44.10
11387;DHT22;5748;53.102;8.456;2023-03-01T10:35:56;19.60;43.60
11387;DHT22;5748;53.102;8.456;2023-03-01T10:38:23;19.80;43.30
11387;DHT22;5748;53.102;8.456;2023-03-01T10:40:54;20.00;43.30
11387;DHT22;5748;53.102;8.456;2023-03-01T10:43:25;20.20;43.00
11387;DHT22;5748;53.102;8.456;2023-03-01T10:45:53;20.40;42.90
11387;DHT22;5748;53.102;8.456;2023-03-01T10:48:22;20.50;42.60
11387;DHT22;5748;53.102;8.456;2023-03-01T10:51:06;20.70;42.10
11387;DHT22;5748;53.102;8.456;2023-03-01T10:53:35;20.80;40.50
11387;DHT22;5748;53.102;8.456;2023-03-01T10:56:06;20.80;41.50
11387;DHT22;5748;53.102;8.456;2023-03-01T10:58:37;20.90;41.30
11387;DHT22;5748;53.102;8.456;2023-03-01T11:01:23;20.90;41.20
11387;DHT22;5748;53.102;8.456;2023-03-01T11:04:09;21.00;40.80
11387;DHT22;5748;53.102;8.456;2023-03-01T11:06:39;20.90;39.70
11387;DHT22;5748;53.102;8.456;2023-03-01T11:09:15;20.80;40.20
11387;DHT22;5748;53.102;8.456;2023-03-01T11:11:44;20.80;39.40
11387;DHT22;5748;53.102;8.456;2023-03-01T11:14:16;20.70;39.70
11387;DHT22;5748;53.102;8.456;2023-03-01T11:16:47;20.70;39.10
11387;DHT22;5748;53.102;8.456;2023-03-01T11:19:20;20.60;39.50
11387;DHT22;5748;53.102;8.456;2023-03-01T11:21:57;20.50;39.20
11387;DHT22;5748;53.102;8.456;2023-03-01T11:24:31;20.40;39.10
11387;DHT22;5748;53.102;8.456;2023-03-01T11:27:04;20.30;39.10
11387;DHT22;5748;53.102;8.456;2023-03-01T11:29:42;20.30;39.20
11387;DHT22;5748;53.102;8.456;2023-03-01T11:32:13;20.20;38.70
11387;DHT22;5748;53.102;8.456;2023-03-01T11:34:45;20.20;39.00
11387;DHT22;5748;53.102;8.456;2023-03-01T11:37:26;20.10;39.20
11387;DHT22;5748;53.102;8.456;2023-03-01T11:40:05;20.00;39.20
11387;DHT22;5748;53.102;8.456;2023-03-01T11:42:46;20.30;39.30
11387;DHT22;5748;53.102;8.456;2023-03-01T11:45:20;20.30;39.40
11387;DHT22;5748;53.102;8.456;2023-03-01T11:48:07;20.40;39.40
11387;DHT22;5748;53.102;8.456;2023-03-01T11:50:50;20.50;39.20
11387;DHT22;5748;53.102;8.456;2023-03-01T11:53:33;20.60;39.40
11387;DHT22;5748;53.102;8.456;2023-03-01T11:56:16;20.60;38.70
11387;DHT22;5748;53.102;8.456;2023-03-01T11:59:10;20.70;39.00
11387;DHT22;5748;53.102;8.456;2023-03-01T12:02:07;20.80;38.70
11387;DHT22;5748;53.102;8.456;2023-03-01T12:05:06;20.80;38.50
11387;DHT22;5748;53.102;8.456;2023-03-01T12:07:53;20.90;38.30
11387;DHT22;5748;53.102;8.456;2023-03-01T12:10:27;20.80;38.00
11387;DHT22;5748;53.102;8.456;2023-03-01T12:13:13;20.80;37.90
11387;DHT22;5748;53.102;8.456;2023-03-01T12:16:11;20.60;37.30
11387;DHT22;5748;53.102;8.456;2023-03-01T12:22:09;20.30;36.90
11387;DHT22;5748;53.102;8.456;2023-03-01T12:24:57;20.00;36.60
11387;DHT22;5748;53.102;8.456;2023-03-01T12:31:19;19.60;37.70
11387;DHT22;5748;53.102;8.456;2023-03-01T12:34:22;19.50;38.10
11387;DHT22;5748;53.102;8.456;2023-03-01T12:40:10;19.50;38.40
11387;DHT22;5748;53.102;8.456;2023-03-01T12:42:49;19.50;38.80
11387;DHT22;5748;53.102;8.456;2023-03-01T12:45:39;19.60;38.60
11387;DHT22;5748;53.102;8.456;2023-03-01T12:48:24;19.70;38.80
11387;DHT22;5748;53.102;8.456;2023-03-01T12:51:07;19.80;38.50
11387;DHT22;5748;53.102;8.456;2023-03-01T12:53:40;19.80;38.40
11387;DHT22;5748;53.102;8.456;2023-03-01T12:56:13;19.80;38.40
11387;DHT22;5748;53.102;8.456;2023-03-01T12:58:51;19.70;38.30
11387;DHT22;5748;53.102;8.456;2023-03-01T13:01:37;19.70;38.10
11387;DHT22;5748;53.102;8.456;2023-03-01T13:04:18;19.70;38.00
11387;DHT22;5748;53.102;8.456;2023-03-01T13:07:02;19.70;38.60
11387;DHT22;5748;53.102;8.456;2023-03-01T13:09:40;19.80;38.40
11387;DHT22;5748;53.102;8.456;2023-03-01T13:12:50;19.80;38.70
11387;DHT22;5748;53.102;8.456;2023-03-01T13:15:35;19.90;38.10
11387;DHT22;5748;53.102;8.456;2023-03-01T13:18:29;19.90;38.20
11387;DHT22;5748;53.102;8.456;2023-03-01T13:20:59;19.80;37.90
11387;DHT22;5748;53.102;8.456;2023-03-01T13:23:31;19.70;37.90
11387;DHT22;5748;53.102;8.456;2023-03-01T13:26:05;19.50;38.00
11387;DHT22;5748;53.102;8.456;2023-03-01T13:28:53;19.20;37.70
11387;DHT22;5748;53.102;8.456;2023-03-01T13:35:00;18.90;37.50
11387;DHT22;5748;53.102;8.456;2023-03-01T13:37:33;18.80;37.40
11387;DHT22;5748;53.102;8.456;2023-03-01T13:43:31;18.40;37.80
11387;DHT22;5748;53.102;8.456;2023-03-01T13:46:00;18.20;38.20
11387;DHT22;5748;53.102;8.456;2023-03-01T13:48:30;18.10;38.30
11387;DHT22;5748;53.102;8.456;2023-03-01T13:51:00;18.00;38.60
11387;DHT22;5748;53.102;8.456;2023-03-01T13:53:31;17.90;38.80
11387;DHT22;5748;53.102;8.456;2023-03-01T13:56:12;17.90;38.90
11387;DHT22;5748;53.102;8.456;2023-03-01T13:58:48;17.80;38.80
11387;DHT22;5748;53.102;8.456;2023-03-01T14:01:26;17.80;38.80
11387;DHT22;5748;53.102;8.456;2023-03-01T14:03:55;17.80;39.00
11387;DHT22;5748;53.102;8.456;2023-03-01T14:06:23;17.90;39.20
11387;DHT22;5748;53.102;8.456;2023-03-01T14:09:02;17.90;39.20
11387;DHT22;5748;53.102;8.456;2023-03-01T14:14:54;17.90;38.50
11387;DHT22;5748;53.102;8.456;2023-03-01T14:17:44;17.80;38.50
11387;DHT22;5748;53.102;8.456;2023-03-01T14:20:19;17.70;38.50
11387;DHT22;5748;53.102;8.456;2023-03-01T14:22:49;17.60;38.40
11387;DHT22;5748;53.102;8.456;2023-03-01T14:25:27;17.50;38.40
11387;DHT22;5748;53.102;8.456;2023-03-01T14:28:02;18.40;39.40
11387;DHT22;5748;53.102;8.456;2023-03-01T14:30:35;17.30;38.60
11387;DHT22;5748;53.102;8.456;2023-03-01T14:33:05;17.20;38.70
11387;DHT22;5748;53.102;8.456;2023-03-01T14:35:42;17.20;38.80
11387;DHT22;5748;53.102;8.456;2023-03-01T14:38:21;17.10;38.40
11387;DHT22;5748;53.102;8.456;2023-03-01T14:40:51;17.00;38.40
11387;DHT22;5748;53.102;8.456;2023-03-01T14:43:23;16.80;38.30
11387;DHT22;5748;53.102;8.456;2023-03-01T14:45:52;17.30;38.90
11387;DHT22;5748;53.102;8.456;2023-03-01T14:48:20;16.60;38.70
11387;DHT22;5748;53.102;8.456;2023-03-01T14:50:48;16.40;38.50
11387;DHT22;5748;53.102;8.456;2023-03-01T14:53:18;16.30;38.60
11387;DHT22;5748;53.102;8.456;2023-03-01T14:55:48;16.20;38.80
11387;DHT22;5748;53.102;8.456;2023-03-01T14:58:20;16.30;39.20
11387;DHT22;5748;53.102;8.456;2023-03-01T15:00:52;16.10;39.20
11387;DHT22;5748;53.102;8.456;2023-03-01T15:03:25;15.90;39.30
11387;DHT22;5748;53.102;8.456;2023-03-01T15:05:57;16.00;39.20
11387;DHT22;5748;53.102;8.456;2023-03-01T15:08:25;15.80;39.20
11387;DHT22;5748;53.102;8.456;2023-03-01T15:11:19;15.80;39.20
11387;DHT22;5748;53.102;8.456;2023-03-01T15:13:50;15.80;39.30
11387;DHT22;5748;53.102;8.456;2023-03-01T15:16:20;15.80;39.20
11387;DHT22;5748;53.102;8.456;2023-03-01T15:18:59;15.70;39.30
11387;DHT22;5748;53.102;8.456;2023-03-01T15:21:31;15.70;39.50
11387;DHT22;5748;53.102;8.456;2023-03-01T15:24:04;15.70;39.20
11387;DHT22;5748;53.102;8.456;2023-03-01T15:26:40;15.70;39.80
11387;DHT22;5748;53.102;8.456;2023-03-01T15:29:16;15.80;39.90
11387;DHT22;5748;53.102;8.456;2023-03-01T15:31:55;17.10;41.20
11387;DHT22;5748;53.102;8.456;2023-03-01T15:34:25;15.90;40.30
11387;DHT22;5748;53.102;8.456;2023-03-01T15:36:54;16.00;40.00
11387;DHT22;5748;53.102;8.456;2023-03-01T15:39:40;16.00;39.90
11387;DHT22;5748;53.102;8.456;2023-03-01T15:42:11;16.20;40.10
11387;DHT22;5748;53.102;8.456;2023-03-01T15:44:41;16.30;40.00
11387;DHT22;5748;53.102;8.456;2023-03-01T15:47:39;16.10;39.70
11387;DHT22;5748;53.102;8.456;2023-03-01T15:50:16;16.10;39.70
11387;DHT22;5748;53.102;8.456;2023-03-01T15:52:45;16.10;39.60
11387;DHT22;5748;53.102;8.456;2023-03-01T15:55:16;15.50;39.10
11387;DHT22;5748;53.102;8.456;2023-03-01T15:57:45;16.30;39.60
11387;DHT22;5748;53.102;8.456;2023-03-01T16:00:14;15.90;39.10
11387;DHT22;5748;53.102;8.456;2023-03-01T16:02:50;15.90;39.20
11387;DHT22;5748;53.102;8.456;2023-03-01T16:05:19;15.70;39.20
11387;DHT22;5748;53.102;8.456;2023-03-01T16:07:49;15.60;38.80
11387;DHT22;5748;53.102;8.456;2023-03-01T16:10:18;15.50;39.10
11387;DHT22;5748;53.102;8.456;2023-03-01T16:12:54;15.40;39.20
11387;DHT22;5748;53.102;8.456;2023-03-01T16:15:29;15.30;39.20
11387;DHT22;5748;53.102;8.456;2023-03-01T16:18:00;15.10;39.20
11387;DHT22;5748;53.102;8.456;2023-03-01T16:20:30;15.00;39.10
11387;DHT22;5748;53.102;8.456;2023-03-01T16:22:58;14.80;39.20
11387;DHT22;5748;53.102;8.456;2023-03-01T16:25:25;14.70;39.20
11387;DHT22;5748;53.102;8.456;2023-03-01T16:27:57;14.50;39.20
11387;DHT22;5748;53.102;8.456;2023-03-01T16:30:38;16.80;41.60
11387;DHT22;5748;53.102;8.456;2023-03-01T16:33:14;14.10;38.90
11387;DHT22;5748;53.102;8.456;2023-03-01T16:35:41;14.10;39.60
11387;DHT22;5748;53.102;8.456;2023-03-01T16:38:10;14.10;39.40
11387;DHT22;5748;53.102;8.456;2023-03-01T16:40:38;13.80;39.40
11387;DHT22;5748;53.102;8.456;2023-03-01T16:43:06;13.80;39.50
11387;DHT22;5748;53.102;8.456;2023-03-01T16:45:36;14.90;40.60
11387;DHT22;5748;53.102;8.456;2023-03-01T16:48:06;13.70;39.90